sensor_id;sensor_type;location;lat;lon;timestamp;pressure;altitude;pressure_sealevel;temperature;humidity
15405;BME280;7801;48.124;11.590;2023-02-28T00:01:25;95873.72;;;-0.03;70.49
15405;BME280;7801;48.124;11.590;2023-02-28T00:03:51;95872.22;;;0.08;70.24
15405;BME280;7801;48.124;11.590;2023-02-28T00:06:16;95877.03;;;0.05;70.25
15405;BME280;7801;48.124;11.590;2023-02-28T00:08:43;95870.66;;;0.00;70.67
15405;BME280;7801;48.124;11.590;2023-02-28T00:11:12;95866.19;;;0.08;70.72
15405;BME280;7801;48.124;11.590;2023-02-28T00:13:43;95864.38;;;0.08;70.53
15405;BME280;7801;48.124;11.590;2023-02-28T00:16:15;95864.50;;;0.20;69.83
15405;BME280;7801;48.124;11.590;2023-02-28T00:18:43;95862.03;;;0.25;69.72
15405;BME280;7801;48.124;11.590;2023-02-28T00:21:10;95862.75;;;0.32;69.51
15405;BME280;7801;48.124;11.590;2023-02-28T00:23:37;95860.94;;;0.14;69.79
15405;BME280;7801;48.124;11.590;2023-02-28T00:26:07;95852.69;;;0.17;70.29
15405;BME280;7801;48.124;11.590;2023-02-28T00:28:32;95853.75;;;0.10;70.19
15405;BME280;7801;48.124;11.590;2023-02-28T00:31:00;95852.56;;;0.06;70.17
15405;BME280;7801;48.124;11.590;2023-02-28T00:33:27;95847.41;;;-0.26;70.91
15405;BME280;7801;48.124;11.590;2023-02-28T00:36:04;95850.72;;;-0.12;71.47
15405;BME280;7801;48.124;11.590;2023-02-28T00:38:30;95850.97;;;0.05;70.81
15405;BME280;7801;48.124;11.590;2023-02-28T00:40:58;95844.59;;;0.00;70.34
15405;BME280;7801;48.124;11.590;2023-02-28T00:43:32;95842.09;;;0.30;69.98
15405;BME280;7801;48.124;11.590;2023-02-28T00:45:58;95841.94;;;0.07;70.59
15405;BME280;7801;48.124;11.590;2023-02-28T00:48:24;95850.50;;;-0.11;70.96
15405;BME280;7801;48.124;11.590;2023-02-28T00:50:50;95844.88;;;-0.08;70.97
15405;BME280;7801;48.124;11.590;2023-02-28T00:53:18;95848.16;;;-0.19;71.49
15405;BME280;7801;48.124;11.590;2023-02-28T00:55:45;95851.12;;;-0.15;70.68
15405;BME280;7801;48.124;11.590;2023-02-28T00:58:12;95846.63;;;-0.02;70.79
15405;BME280;7801;48.124;11.590;2023-02-28T01:00:40;95846.94;;;0.09;70.75
15405;BME280;7801;48.124;11.590;2023-02-28T01:03:05;95849.53;;;0.09;70.79
15405;BME280;7801;48.124;11.590;2023-02-28T01:05:32;95852.72;;;0.11;70.56
15405;BME280;7801;48.124;11.590;2023-02-28T01:07:59;95848.56;;;0.03;70.32
15405;BME280;7801;48.124;11.590;2023-02-28T01:10:25;95846.63;;;-0.02;71.28
15405;BME280;7801;48.124;11.590;2023-02-28T01:12:52;95849.66;;;-0.05;70.83
15405;BME280;7801;48.124;11.590;2023-02-28T01:15:18;95842.69;;;-0.11;71.57
15405;BME280;7801;48.124;11.590;2023-02-28T01:17:44;95845.84;;;-0.02;71.39
15405;BME280;7801;48.124;11.590;2023-02-28T01:20:13;95836.72;;;0.07;70.89
15405;BME280;7801;48.124;11.590;2023-02-28T01:22:39;95839.16;;;0.02;71.37
15405;BME280;7801;48.124;11.590;2023-02-28T01:25:06;95830.78;;;-0.25;71.83
15405;BME280;7801;48.124;11.590;2023-02-28T01:27:33;95836.62;;;-0.29;71.84
15405;BME280;7801;48.124;11.590;2023-02-28T01:30:00;95823.63;;;-0.36;72.30
15405;BME280;7801;48.124;11.590;2023-02-28T01:32:29;95832.22;;;-0.60;73.20
15405;BME280;7801;48.124;11.590;2023-02-28T01:34:57;95830.75;;;-0.50;73.26
15405;BME280;7801;48.124;11.590;2023-02-28T01:37:22;95830.97;;;-0.51;73.54
15405;BME280;7801;48.124;11.590;2023-02-28T01:39:48;95826.34;;;-0.49;73.21
15405;BME280;7801;48.124;11.590;2023-02-28T01:42:13;95821.38;;;-0.57;73.27
15405;BME280;7801;48.124;11.590;2023-02-28T01:45:01;95822.13;;;-0.50;73.18
15405;BME280;7801;48.124;11.590;2023-02-28T01:47:36;95821.00;;;-0.61;73.64
15405;BME280;7801;48.124;11.590;2023-02-28T01:50:06;95810.50;;;-0.48;73.46
15405;BME280;7801;48.124;11.590;2023-02-28T01:52:32;95819.75;;;-0.52;73.86
15405;BME280;7801;48.124;11.590;2023-02-28T01:55:01;95815.22;;;-0.13;72.60
15405;BME280;7801;48.124;11.590;2023-02-28T01:57:41;95815.28;;;-0.20;72.45
15405;BME280;7801;48.124;11.590;2023-02-28T02:00:13;95813.12;;;-0.23;72.43
15405;BME280;7801;48.124;11.590;2023-02-28T02:02:48;95814.47;;;-0.20;71.90
15405;BME280;7801;48.124;11.590;2023-02-28T02:05:18;95813.97;;;-0.29;72.46
15405;BME280;7801;48.124;11.590;2023-02-28T02:07:47;95814.00;;;-0.11;72.07
15405;BME280;7801;48.124;11.590;2023-02-28T02:10:16;95806.09;;;-0.47;72.64
15405;BME280;7801;48.124;11.590;2023-02-28T02:13:07;95811.78;;;-0.32;72.57
15405;BME280;7801;48.124;11.590;2023-02-28T02:15:42;95805.78;;;-0.32;72.67
15405;BME280;7801;48.124;11.590;2023-02-28T02:21:16;95809.50;;;-0.22;72.37
15405;BME280;7801;48.124;11.590;2023-02-28T02:31:56;95811.47;;;-0.74;74.32
15405;BME280;7801;48.124;11.590;2023-02-28T02:37:14;95804.78;;;-0.94;75.38
15405;BME280;7801;48.124;11.590;2023-02-28T02:40:03;95801.06;;;-1.05;76.35
15405;BME280;7801;48.124;11.590;2023-02-28T02:42:45;95801.56;;;-0.90;75.64
15405;BME280;7801;48.124;11.590;2023-02-28T02:45:19;95805.78;;;-0.89;75.75
15405;BME280;7801;48.124;11.590;2023-02-28T02:47:48;95801.37;;;-0.95;76.15
15405;BME280;7801;48.124;11.590;2023-02-28T02:50:19;95794.75;;;-0.91;76.12
15405;BME280;7801;48.124;11.590;2023-02-28T02:52:51;95790.97;;;-0.95;76.20
15405;BME280;7801;48.124;11.590;2023-02-28T02:55:18;95794.00;;;-0.98;75.93
15405;BME280;7801;48.124;11.590;2023-02-28T02:58:00;95791.47;;;-0.80;76.17
15405;BME280;7801;48.124;11.590;2023-02-28T03:00:31;95790.62;;;-0.74;75.27
15405;BME280;7801;48.124;11.590;2023-02-28T03:02:59;95790.34;;;-0.90;75.89
15405;BME280;7801;48.124;11.590;2023-02-28T03:05:30;95797.09;;;-0.83;75.75
15405;BME280;7801;48.124;11.590;2023-02-28T03:07:59;95792.97;;;-0.90;76.05
15405;BME280;7801;48.124;11.590;2023-02-28T03:13:02;95788.84;;;-1.05;76.91
15405;BME280;7801;48.124;11.590;2023-02-28T03:15:46;95784.84;;;-1.07;77.16
15405;BME280;7801;48.124;11.590;2023-02-28T03:26:31;95792.25;;;-1.04;77.61
15405;BME280;7801;48.124;11.590;2023-02-28T03:29:05;95795.19;;;-0.94;77.38
15405;BME280;7801;48.124;11.590;2023-02-28T03:31:34;95789.56;;;-0.91;77.05
15405;BME280;7801;48.124;11.590;2023-02-28T03:34:05;95789.59;;;-0.97;76.67
15405;BME280;7801;48.124;11.590;2023-02-28T03:36:37;95795.09;;;-0.81;76.40
15405;BME280;7801;48.124;11.590;2023-02-28T03:39:19;95790.75;;;-0.87;77.00
15405;BME280;7801;48.124;11.590;2023-02-28T03:41:53;95787.19;;;-0.67;76.35
15405;BME280;7801;48.124;11.590;2023-02-28T03:44:29;95787.47;;;-0.82;76.36
15405;BME280;7801;48.124;11.590;2023-02-28T03:47:00;95789.94;;;-0.87;77.07
15405;BME280;7801;48.124;11.590;2023-02-28T03:49:32;95791.94;;;-0.89;77.09
15405;BME280;7801;48.124;11.590;2023-02-28T03:52:02;95796.28;;;-1.08;78.02
15405;BME280;7801;48.124;11.590;2023-02-28T03:54:31;95798.88;;;-1.08;78.32
15405;BME280;7801;48.124;11.590;2023-02-28T03:57:15;95792.97;;;-1.28;78.94
15405;BME280;7801;48.124;11.590;2023-02-28T03:59:47;95797.59;;;-1.37;79.42
15405;BME280;7801;48.124;11.590;2023-02-28T04:02:13;95794.72;;;-1.22;79.43
15405;BME280;7801;48.124;11.590;2023-02-28T04:04:40;95808.59;;;-1.35;79.40
15405;BME280;7801;48.124;11.590;2023-02-28T04:07:11;95804.97;;;-1.27;79.59
15405;BME280;7801;48.124;11.590;2023-02-28T04:09:36;95810.41;;;-1.42;80.25
15405;BME280;7801;48.124;11.590;2023-02-28T04:12:02;95808.81;;;-1.36;79.90
15405;BME280;7801;48.124;11.590;2023-02-28T04:14:27;95817.00;;;-1.33;80.23
15405;BME280;7801;48.124;11.590;2023-02-28T04:16:52;95824.44;;;-1.43;80.87
15405;BME280;7801;48.124;11.590;2023-02-28T04:19:18;95824.31;;;-1.10;80.10
15405;BME280;7801;48.124;11.590;2023-02-28T04:21:46;95818.53;;;-1.19;80.14
15405;BME280;7801;48.124;11.590;2023-02-28T04:24:14;95819.69;;;-1.08;79.71
15405;BME280;7801;48.124;11.590;2023-02-28T04:26:43;95824.59;;;-1.25;80.01
15405;BME280;7801;48.124;11.590;2023-02-28T04:29:10;95829.75;;;-1.18;80.17
15405;BME280;7801;48.124;11.590;2023-02-28T04:31:35;95833.50;;;-1.08;79.88
15405;BME280;7801;48.124;11.590;2023-02-28T04:34:01;95835.19;;;-1.26;80.79
15405;BME280;7801;48.124;11.590;2023-02-28T04:36:27;95830.84;;;-1.01;80.22
15405;BME280;7801;48.124;11.590;2023-02-28T04:38:52;95831.84;;;-1.02;79.81
15405;BME280;7801;48.124;11.590;2023-02-28T04:41:18;95832.81;;;-0.90;79.33
15405;BME280;7801;48.124;11.590;2023-02-28T04:43:43;95834.06;;;-0.99;79.49
15405;BME280;7801;48.124;11.590;2023-02-28T04:46:11;95831.03;;;-0.96;79.78
15405;BME280;7801;48.124;11.590;2023-02-28T04:48:38;95829.19;;;-0.89;79.87
15405;BME280;7801;48.124;11.590;2023-02-28T04:51:05;95838.13;;;-1.10;80.38
15405;BME280;7801;48.124;11.590;2023-02-28T04:53:32;95823.25;;;-1.02;80.47
15405;BME280;7801;48.124;11.590;2023-02-28T04:55:57;95837.06;;;-1.02;80.74
15405;BME280;7801;48.124;11.590;2023-02-28T04:58:23;95834.22;;;-0.94;80.37
15405;BME280;7801;48.124;11.590;2023-02-28T05:00:50;95832.84;;;-1.03;80.72
15405;BME280;7801;48.124;11.590;2023-02-28T05:03:15;95839.44;;;-0.94;80.53
15405;BME280;7801;48.124;11.590;2023-02-28T05:05:40;95841.72;;;-1.04;80.67
15405;BME280;7801;48.124;11.590;2023-02-28T05:08:06;95836.03;;;-0.94;80.48
15405;BME280;7801;48.124;11.590;2023-02-28T05:10:32;95847.66;;;-0.97;81.03
15405;BME280;7801;48.124;11.590;2023-02-28T05:12:58;95853.97;;;-0.80;80.82
15405;BME280;7801;48.124;11.590;2023-02-28T05:15:23;95851.66;;;-0.94;80.78
15405;BME280;7801;48.124;11.590;2023-02-28T05:17:49;95848.06;;;-1.00;81.03
15405;BME280;7801;48.124;11.590;2023-02-28T05:20:14;95849.34;;;-1.09;81.13
15405;BME280;7801;48.124;11.590;2023-02-28T05:22:40;95847.06;;;-0.99;81.64
15405;BME280;7801;48.124;11.590;2023-02-28T05:25:06;95843.41;;;-0.85;80.82
15405;BME280;7801;48.124;11.590;2023-02-28T05:27:33;95852.97;;;-0.79;80.41
15405;BME280;7801;48.124;11.590;2023-02-28T05:29:59;95854.97;;;-0.81;80.51
15405;BME280;7801;48.124;11.590;2023-02-28T05:32:24;95850.84;;;-0.88;80.85
15405;BME280;7801;48.124;11.590;2023-02-28T05:34:50;95857.16;;;-0.78;80.61
15405;BME280;7801;48.124;11.590;2023-02-28T05:37:15;95854.06;;;-0.93;80.77
15405;BME280;7801;48.124;11.590;2023-02-28T05:39:41;95854.81;;;-0.86;81.04
15405;BME280;7801;48.124;11.590;2023-02-28T05:42:10;95854.72;;;-1.04;81.25
15405;BME280;7801;48.124;11.590;2023-02-28T05:44:38;95858.06;;;-0.90;80.98
15405;BME280;7801;48.124;11.590;2023-02-28T05:47:03;95852.03;;;-0.91;81.84
15405;BME280;7801;48.124;11.590;2023-02-28T05:49:29;95854.03;;;-0.86;81.18
15405;BME280;7801;48.124;11.590;2023-02-28T05:51:54;95856.56;;;-0.80;81.01
15405;BME280;7801;48.124;11.590;2023-02-28T05:54:19;95847.91;;;-0.67;80.76
15405;BME280;7801;48.124;11.590;2023-02-28T05:56:45;95854.87;;;-0.61;80.44
15405;BME280;7801;48.124;11.590;2023-02-28T05:59:14;95859.28;;;-0.61;79.26
15405;BME280;7801;48.124;11.590;2023-02-28T06:01:43;95855.84;;;-0.55;79.41
15405;BME280;7801;48.124;11.590;2023-02-28T06:04:17;95864.66;;;-0.56;79.07
15405;BME280;7801;48.124;11.590;2023-02-28T06:06:48;95859.28;;;-0.61;79.06
15405;BME280;7801;48.124;11.590;2023-02-28T06:09:14;95867.44;;;-0.51;79.09
15405;BME280;7801;48.124;11.590;2023-02-28T06:11:40;95866.62;;;-0.52;78.44
15405;BME280;7801;48.124;11.590;2023-02-28T06:14:05;95874.38;;;-0.70;78.16
15405;BME280;7801;48.124;11.590;2023-02-28T06:16:33;95874.03;;;-0.49;78.16
15405;BME280;7801;48.124;11.590;2023-02-28T06:19:01;95875.84;;;-0.49;78.59
15405;BME280;7801;48.124;11.590;2023-02-28T06:21:27;95879.53;;;-0.32;78.00
15405;BME280;7801;48.124;11.590;2023-02-28T06:23:53;95884.78;;;-0.39;77.63
15405;BME280;7801;48.124;11.590;2023-02-28T06:26:19;95880.09;;;-0.55;77.83
15405;BME280;7801;48.124;11.590;2023-02-28T06:28:45;95887.00;;;-0.74;78.27
15405;BME280;7801;48.124;11.590;2023-02-28T06:31:13;95895.63;;;-0.80;78.35
15405;BME280;7801;48.124;11.590;2023-02-28T06:33:39;95883.63;;;-0.81;78.74
15405;BME280;7801;48.124;11.590;2023-02-28T06:36:06;95890.47;;;-0.86;79.01
15405;BME280;7801;48.124;11.590;2023-02-28T06:38:32;95896.91;;;-0.95;79.28
15405;BME280;7801;48.124;11.590;2023-02-28T06:41:00;95883.22;;;-0.78;79.40
15405;BME280;7801;48.124;11.590;2023-02-28T06:43:28;95890.03;;;-0.77;79.02
15405;BME280;7801;48.124;11.590;2023-02-28T06:45:55;95899.87;;;-0.85;79.04
15405;BME280;7801;48.124;11.590;2023-02-28T06:48:21;95903.09;;;-0.83;79.09
15405;BME280;7801;48.124;11.590;2023-02-28T06:50:46;95908.13;;;-0.95;79.62
15405;BME280;7801;48.124;11.590;2023-02-28T06:53:12;95911.56;;;-1.01;79.69
15405;BME280;7801;48.124;11.590;2023-02-28T06:55:38;95917.66;;;-1.27;80.58
15405;BME280;7801;48.124;11.590;2023-02-28T06:58:03;95920.06;;;-1.25;81.26
15405;BME280;7801;48.124;11.590;2023-02-28T07:00:43;95915.00;;;-1.07;81.16
15405;BME280;7801;48.124;11.590;2023-02-28T07:03:10;95920.94;;;-0.87;80.57
15405;BME280;7801;48.124;11.590;2023-02-28T07:05:36;95919.66;;;-0.78;79.80
15405;BME280;7801;48.124;11.590;2023-02-28T07:08:03;95914.56;;;-0.59;79.00
15405;BME280;7801;48.124;11.590;2023-02-28T07:10:30;95916.94;;;-0.51;78.78
15405;BME280;7801;48.124;11.590;2023-02-28T07:12:59;95923.34;;;-0.47;78.64
15405;BME280;7801;48.124;11.590;2023-02-28T07:15:52;95927.19;;;-0.56;79.03
15405;BME280;7801;48.124;11.590;2023-02-28T07:18:22;95926.75;;;0.59;93.09
15405;BME280;7801;48.124;11.590;2023-02-28T07:20:49;95926.09;;;1.19;92.84
15405;BME280;7801;48.124;11.590;2023-02-28T07:23:19;95920.97;;;2.02;93.10
15405;BME280;7801;48.124;11.590;2023-02-28T07:25:46;95919.34;;;1.11;76.75
15405;BME280;7801;48.124;11.590;2023-02-28T07:28:13;95922.66;;;0.63;74.33
15405;BME280;7801;48.124;11.590;2023-02-28T07:30:44;95929.78;;;0.56;74.60
15405;BME280;7801;48.124;11.590;2023-02-28T07:33:10;95931.41;;;0.32;74.70
15405;BME280;7801;48.124;11.590;2023-02-28T07:35:39;95930.37;;;0.09;75.79
15405;BME280;7801;48.124;11.590;2023-02-28T07:38:04;95923.53;;;0.14;75.95
15405;BME280;7801;48.124;11.590;2023-02-28T07:40:30;95933.47;;;-0.01;76.49
15405;BME280;7801;48.124;11.590;2023-02-28T07:42:56;95930.78;;;0.06;76.34
15405;BME280;7801;48.124;11.590;2023-02-28T07:45:21;95933.22;;;0.00;76.18
15405;BME280;7801;48.124;11.590;2023-02-28T07:47:46;95927.09;;;-0.05;76.53
15405;BME280;7801;48.124;11.590;2023-02-28T07:50:15;95930.50;;;-0.05;76.28
15405;BME280;7801;48.124;11.590;2023-02-28T07:52:41;95920.56;;;-0.21;77.29
15405;BME280;7801;48.124;11.590;2023-02-28T07:55:08;95930.13;;;-0.15;77.31
15405;BME280;7801;48.124;11.590;2023-02-28T07:57:34;95926.31;;;-0.12;76.89
15405;BME280;7801;48.124;11.590;2023-02-28T07:59:59;95923.75;;;-0.19;77.31
15405;BME280;7801;48.124;11.590;2023-02-28T08:02:25;95929.56;;;-0.17;77.21
15405;BME280;7801;48.124;11.590;2023-02-28T08:04:50;95927.34;;;-0.20;77.38
15405;BME280;7801;48.124;11.590;2023-02-28T08:07:17;95931.31;;;-0.11;77.59
15405;BME280;7801;48.124;11.590;2023-02-28T08:09:44;95929.28;;;-0.02;76.99
15405;BME280;7801;48.124;11.590;2023-02-28T08:12:14;95937.63;;;0.07;76.56
15405;BME280;7801;48.124;11.590;2023-02-28T08:14:40;95931.94;;;0.16;76.75
15405;BME280;7801;48.124;11.590;2023-02-28T08:17:07;95938.37;;;0.14;75.87
15405;BME280;7801;48.124;11.590;2023-02-28T08:19:32;95937.87;;;0.23;75.52
15405;BME280;7801;48.124;11.590;2023-02-28T08:21:58;95945.25;;;0.33;75.12
15405;BME280;7801;48.124;11.590;2023-02-28T08:24:24;95951.41;;;0.39;75.09
15405;BME280;7801;48.124;11.590;2023-02-28T08:26:52;95941.22;;;0.06;75.35
15405;BME280;7801;48.124;11.590;2023-02-28T08:29:18;95949.75;;;-0.06;76.53
15405;BME280;7801;48.124;11.590;2023-02-28T08:31:45;95955.69;;;-0.23;77.00
15405;BME280;7801;48.124;11.590;2023-02-28T08:34:13;95957.94;;;-0.33;76.92
15405;BME280;7801;48.124;11.590;2023-02-28T08:36:39;95956.91;;;-0.32;77.84
15405;BME280;7801;48.124;11.590;2023-02-28T08:39:07;95951.91;;;-0.34;77.75
15405;BME280;7801;48.124;11.590;2023-02-28T08:41:34;95950.69;;;-0.31;77.88
15405;BME280;7801;48.124;11.590;2023-02-28T08:44:01;95958.41;;;-0.43;78.59
15405;BME280;7801;48.124;11.590;2023-02-28T08:46:26;95961.94;;;-0.38;78.87
15405;BME280;7801;48.124;11.590;2023-02-28T08:48:55;95966.88;;;0.09;77.90
15405;BME280;7801;48.124;11.590;2023-02-28T08:51:22;95961.91;;;0.32;76.27
15405;BME280;7801;48.124;11.590;2023-02-28T08:53:55;95964.69;;;0.37;75.02
15405;BME280;7801;48.124;11.590;2023-02-28T08:56:22;95964.31;;;0.33;75.04
15405;BME280;7801;48.124;11.590;2023-02-28T08:59:02;95970.63;;;0.19;75.36
15405;BME280;7801;48.124;11.590;2023-02-28T09:01:28;95969.97;;;0.24;76.09
15405;BME280;7801;48.124;11.590;2023-02-28T09:03:57;95964.00;;;0.42;74.71
15405;BME280;7801;48.124;11.590;2023-02-28T09:06:26;95971.91;;;0.35;75.02
15405;BME280;7801;48.124;11.590;2023-02-28T09:08:55;95969.47;;;0.40;74.46
15405;BME280;7801;48.124;11.590;2023-02-28T09:11:24;95973.09;;;0.39;74.72
15405;BME280;7801;48.124;11.590;2023-02-28T09:13:51;95976.06;;;0.18;74.75
15405;BME280;7801;48.124;11.590;2023-02-28T09:16:18;95983.00;;;0.55;73.99
15405;BME280;7801;48.124;11.590;2023-02-28T09:18:46;95982.69;;;0.63;73.94
15405;BME280;7801;48.124;11.590;2023-02-28T09:21:16;95970.09;;;0.60;73.31
15405;BME280;7801;48.124;11.590;2023-02-28T09:23:47;95977.81;;;0.74;73.46
15405;BME280;7801;48.124;11.590;2023-02-28T09:28:46;95977.53;;;0.82;72.56
15405;BME280;7801;48.124;11.590;2023-02-28T09:31:14;95983.22;;;0.97;72.64
15405;BME280;7801;48.124;11.590;2023-02-28T09:33:41;95986.31;;;0.87;72.02
15405;BME280;7801;48.124;11.590;2023-02-28T09:36:08;95995.38;;;0.85;73.01
15405;BME280;7801;48.124;11.590;2023-02-28T09:38:35;95995.09;;;1.11;73.25
15405;BME280;7801;48.124;11.590;2023-02-28T09:41:09;96001.06;;;1.36;71.70
15405;BME280;7801;48.124;11.590;2023-02-28T09:43:39;96002.06;;;1.54;70.80
15405;BME280;7801;48.124;11.590;2023-02-28T09:46:41;96004.22;;;1.75;70.04
15405;BME280;7801;48.124;11.590;2023-02-28T09:49:14;96006.25;;;1.73;70.02
15405;BME280;7801;48.124;11.590;2023-02-28T09:51:59;96009.63;;;1.44;69.98
15405;BME280;7801;48.124;11.590;2023-02-28T09:54:32;96011.34;;;1.50;69.95
15405;BME280;7801;48.124;11.590;2023-02-28T10:00:36;96014.66;;;1.45;70.22
15405;BME280;7801;48.124;11.590;2023-02-28T10:03:43;96012.47;;;1.60;70.99
15405;BME280;7801;48.124;11.590;2023-02-28T10:06:21;96015.16;;;1.35;71.07
15405;BME280;7801;48.124;11.590;2023-02-28T10:09:10;96016.38;;;1.33;71.28
15405;BME280;7801;48.124;11.590;2023-02-28T10:11:40;96014.19;;;1.48;69.65
15405;BME280;7801;48.124;11.590;2023-02-28T10:14:23;96015.84;;;1.06;70.79
15405;BME280;7801;48.124;11.590;2023-02-28T10:17:22;96019.28;;;1.61;70.64
15405;BME280;7801;48.124;11.590;2023-02-28T10:25:22;96024.44;;;1.50;69.81
15405;BME280;7801;48.124;11.590;2023-02-28T10:27:58;96027.97;;;1.73;69.17
15405;BME280;7801;48.124;11.590;2023-02-28T10:30:28;96022.19;;;1.53;69.02
15405;BME280;7801;48.124;11.590;2023-02-28T10:32:55;96037.94;;;1.28;69.63
15405;BME280;7801;48.124;11.590;2023-02-28T10:35:25;96031.31;;;1.08;70.46
15405;BME280;7801;48.124;11.590;2023-02-28T10:37:57;96033.19;;;1.00;70.41
15405;BME280;7801;48.124;11.590;2023-02-28T10:40:28;96032.69;;;1.10;71.85
15405;BME280;7801;48.124;11.590;2023-02-28T10:49:03;96037.34;;;1.26;70.33
15405;BME280;7801;48.124;11.590;2023-02-28T10:51:48;96043.31;;;1.33;69.54
15405;BME280;7801;48.124;11.590;2023-02-28T10:54:30;96039.66;;;0.98;69.83
15405;BME280;7801;48.124;11.590;2023-02-28T10:57:18;96047.31;;;0.93;71.08
15405;BME280;7801;48.124;11.590;2023-02-28T11:00:14;96049.12;;;1.17;70.61
15405;BME280;7801;48.124;11.590;2023-02-28T11:02:40;96049.06;;;1.24;70.17
15405;BME280;7801;48.124;11.590;2023-02-28T11:05:34;96047.47;;;1.23;70.22
15405;BME280;7801;48.124;11.590;2023-02-28T11:08:16;96043.88;;;1.17;70.68
15405;BME280;7801;48.124;11.590;2023-02-28T11:10:53;96048.69;;;1.38;70.58
15405;BME280;7801;48.124;11.590;2023-02-28T11:13:26;96055.69;;;1.45;69.54
15405;BME280;7801;48.124;11.590;2023-02-28T11:16:05;96044.41;;;1.44;69.92
15405;BME280;7801;48.124;11.590;2023-02-28T11:18:54;96051.38;;;1.50;70.37
15405;BME280;7801;48.124;11.590;2023-02-28T11:24:06;96042.22;;;1.59;69.26
15405;BME280;7801;48.124;11.590;2023-02-28T11:26:49;96034.00;;;1.74;69.49
15405;BME280;7801;48.124;11.590;2023-02-28T11:29:25;96038.97;;;1.94;67.96
15405;BME280;7801;48.124;11.590;2023-02-28T11:34:36;96042.94;;;2.15;67.92
15405;BME280;7801;48.124;11.590;2023-02-28T11:37:11;96034.56;;;1.94;67.57
15405;BME280;7801;48.124;11.590;2023-02-28T11:39:38;96029.84;;;2.15;67.65
15405;BME280;7801;48.124;11.590;2023-02-28T11:45:52;96026.91;;;1.63;69.18
15405;BME280;7801;48.124;11.590;2023-02-28T12:09:53;96006.94;;;2.52;66.61
15405;BME280;7801;48.124;11.590;2023-02-28T12:24:12;95996.03;;;2.55;66.36
15405;BME280;7801;48.124;11.590;2023-02-28T12:26:47;95996.06;;;2.66;66.88
15405;BME280;7801;48.124;11.590;2023-02-28T12:32:16;95994.00;;;2.68;65.76
15405;BME280;7801;48.124;11.590;2023-02-28T12:40:22;95976.31;;;2.40;66.37
15405;BME280;7801;48.124;11.590;2023-02-28T12:42:52;95972.34;;;2.38;66.80
15405;BME280;7801;48.124;11.590;2023-02-28T12:48:51;95982.59;;;2.74;65.94
15405;BME280;7801;48.124;11.590;2023-02-28T12:51:21;95970.31;;;2.87;65.86
15405;BME280;7801;48.124;11.590;2023-02-28T12:54:21;95972.81;;;2.82;66.05
15405;BME280;7801;48.124;11.590;2023-02-28T13:00:22;95973.50;;;2.65;66.09
15405;BME280;7801;48.124;11.590;2023-02-28T13:09:14;95969.03;;;2.54;65.70
15405;BME280;7801;48.124;11.590;2023-02-28T13:18:45;95962.00;;;2.90;64.78
15405;BME280;7801;48.124;11.590;2023-02-28T13:21:29;95969.97;;;2.83;64.57
15405;BME280;7801;48.124;11.590;2023-02-28T13:23:59;95965.16;;;2.92;64.51
15405;BME280;7801;48.124;11.590;2023-02-28T13:29:30;95971.34;;;2.86;64.05
15405;BME280;7801;48.124;11.590;2023-02-28T13:42:48;95973.72;;;2.99;64.92
15405;BME280;7801;48.124;11.590;2023-02-28T13:45:27;95967.78;;;2.92;64.84
15405;BME280;7801;48.124;11.590;2023-02-28T13:48:00;95968.37;;;3.05;64.18
15405;BME280;7801;48.124;11.590;2023-02-28T13:50:37;95974.88;;;3.03;64.04
15405;BME280;7801;48.124;11.590;2023-02-28T13:53:39;95971.34;;;3.09;64.32
15405;BME280;7801;48.124;11.590;2023-02-28T13:56:45;95971.31;;;2.97;63.69
15405;BME280;7801;48.124;11.590;2023-02-28T14:02:18;95972.00;;;3.16;63.84
15405;BME280;7801;48.124;11.590;2023-02-28T14:05:00;95965.03;;;3.22;63.79
15405;BME280;7801;48.124;11.590;2023-02-28T14:07:39;95964.25;;;3.21;63.38
15405;BME280;7801;48.124;11.590;2023-02-28T14:10:25;95962.16;;;3.35;63.32
15405;BME280;7801;48.124;11.590;2023-02-28T14:15:40;95957.59;;;3.42;63.97
15405;BME280;7801;48.124;11.590;2023-02-28T14:18:37;95967.00;;;3.55;64.11
15405;BME280;7801;48.124;11.590;2023-02-28T14:21:34;95960.81;;;3.61;63.96
15405;BME280;7801;48.124;11.590;2023-02-28T14:30:08;95961.75;;;3.55;62.47
15405;BME280;7801;48.124;11.590;2023-02-28T14:38:28;95952.47;;;3.35;62.84
15405;BME280;7801;48.124;11.590;2023-02-28T14:40:58;95964.91;;;3.28;63.10
15405;BME280;7801;48.124;11.590;2023-02-28T14:43:27;95960.47;;;3.29;63.38
15405;BME280;7801;48.124;11.590;2023-02-28T14:46:02;95958.16;;;3.44;63.19
15405;BME280;7801;48.124;11.590;2023-02-28T14:48:29;95959.69;;;3.57;62.98
15405;BME280;7801;48.124;11.590;2023-02-28T14:50:59;95957.69;;;3.75;62.24
15405;BME280;7801;48.124;11.590;2023-02-28T14:53:34;95956.00;;;3.98;63.05
15405;BME280;7801;48.124;11.590;2023-02-28T14:56:02;95956.34;;;4.18;61.30
15405;BME280;7801;48.124;11.590;2023-02-28T14:58:35;95964.53;;;4.05;60.88
15405;BME280;7801;48.124;11.590;2023-02-28T15:01:03;95959.03;;;4.06;61.07
15405;BME280;7801;48.124;11.590;2023-02-28T15:03:30;95960.31;;;4.04;61.38
15405;BME280;7801;48.124;11.590;2023-02-28T15:06:03;95950.75;;;3.98;61.47
15405;BME280;7801;48.124;11.590;2023-02-28T15:08:32;95951.06;;;4.01;61.47
15405;BME280;7801;48.124;11.590;2023-02-28T15:11:18;95955.94;;;4.09;61.64
15405;BME280;7801;48.124;11.590;2023-02-28T15:13:51;95950.81;;;4.31;61.06
15405;BME280;7801;48.124;11.590;2023-02-28T15:16:31;95948.31;;;4.25;60.99
15405;BME280;7801;48.124;11.590;2023-02-28T15:19:05;95946.50;;;4.42;60.64
15405;BME280;7801;48.124;11.590;2023-02-28T15:21:38;95959.06;;;4.40;60.54
15405;BME280;7801;48.124;11.590;2023-02-28T15:24:11;95948.09;;;4.43;60.57
15405;BME280;7801;48.124;11.590;2023-02-28T15:26:43;95955.13;;;4.54;60.13
15405;BME280;7801;48.124;11.590;2023-02-28T15:29:41;95958.12;;;4.46;59.81
15405;BME280;7801;48.124;11.590;2023-02-28T15:32:27;95956.72;;;4.55;60.88
15405;BME280;7801;48.124;11.590;2023-02-28T15:34:59;95953.75;;;4.52;59.56
15405;BME280;7801;48.124;11.590;2023-02-28T15:38:00;95959.47;;;4.32;59.77
15405;BME280;7801;48.124;11.590;2023-02-28T15:40:57;95959.06;;;4.40;60.31
15405;BME280;7801;48.124;11.590;2023-02-28T15:43:24;95965.53;;;4.49;59.90
15405;BME280;7801;48.124;11.590;2023-02-28T15:46:05;95957.25;;;4.40;60.08
15405;BME280;7801;48.124;11.590;2023-02-28T15:48:51;95965.53;;;4.49;60.23
15405;BME280;7801;48.124;11.590;2023-02-28T15:51:36;95961.87;;;4.33;60.27